createdAt,value
2024-05-09T00:00:48.655Z,29.35
2024-05-09T00:03:16.340Z,29.50
2024-05-09T00:05:44.434Z,30.45
2024-05-09T00:08:12.706Z,28.52
2024-05-09T00:10:41.487Z,30.10
2024-05-09T00:13:10.408Z,30.13
2024-05-09T00:15:38.733Z,31.93
2024-05-09T00:18:07.494Z,31.00
2024-05-09T00:20:39.376Z,31.30
2024-05-09T00:23:20.838Z,32.45
2024-05-09T00:25:48.491Z,31.55
2024-05-09T00:28:19.363Z,31.00
2024-05-09T00:30:47.060Z,32.47
2024-05-09T00:33:14.875Z,32.45
2024-05-09T00:35:42.559Z,31.77
2024-05-09T00:38:11.092Z,34.00
2024-05-09T00:40:43.477Z,30.92
2024-05-09T00:43:12.756Z,29.88
2024-05-09T00:45:41.376Z,34.17
2024-05-09T00:48:10.508Z,33.67
2024-05-09T00:50:41.757Z,29.52
2024-05-09T00:53:14.369Z,35.67
2024-05-09T00:55:42.447Z,34.90
2024-05-09T00:58:12.685Z,33.20
2024-05-09T01:00:41.647Z,33.55
2024-05-09T01:03:11.977Z,35.45
2024-05-09T01:05:42.407Z,33.55
2024-05-09T01:08:11.029Z,35.55
2024-05-09T01:10:38.815Z,34.70
2024-05-09T01:13:07.640Z,36.20
2024-05-09T01:15:35.847Z,32.25
2024-05-09T01:18:13.611Z,35.83
2024-05-09T01:20:44.312Z,35.78
2024-05-09T01:23:15.149Z,35.38
2024-05-09T01:25:44.984Z,35.13
2024-05-09T01:28:12.984Z,39.95
2024-05-09T01:30:40.520Z,48.42
2024-05-09T01:33:10.000Z,41.05
2024-05-09T01:35:41.482Z,40.10
2024-05-09T01:38:12.866Z,40.53
2024-05-09T01:40:41.022Z,39.60
2024-05-09T01:43:09.988Z,42.47
2024-05-09T01:45:41.917Z,36.63
2024-05-09T01:48:10.303Z,39.28
2024-05-09T01:50:41.619Z,40.08
2024-05-09T01:53:12.643Z,39.90
2024-05-09T01:55:40.698Z,45.67
2024-05-09T01:58:08.882Z,41.30
2024-05-09T02:00:40.820Z,42.33
2024-05-09T02:03:14.544Z,43.13
2024-05-09T02:05:45.738Z,38.97
2024-05-09T02:08:15.287Z,38.85
2024-05-09T02:10:46.517Z,40.45
2024-05-09T02:13:14.484Z,38.70
2024-05-09T02:15:42.074Z,39.03
2024-05-09T02:18:10.420Z,40.60
2024-05-09T02:20:39.591Z,38.05
2024-05-09T02:23:08.512Z,42.58
2024-05-09T02:25:36.049Z,40.85
2024-05-09T02:28:03.565Z,39.72
2024-05-09T02:30:39.437Z,39.63
2024-05-09T02:33:12.125Z,40.90
2024-05-09T02:35:42.748Z,39.63
2024-05-09T02:38:11.216Z,39.35
2024-05-09T02:40:39.979Z,46.03
2024-05-09T02:43:10.085Z,42.33
2024-05-09T02:45:39.856Z,42.15
2024-05-09T02:48:10.529Z,47.92
2024-05-09T02:50:40.660Z,43.83
2024-05-09T02:55:38.154Z,46.33
2024-05-09T02:58:08.516Z,45.03
2024-05-09T03:00:39.913Z,42.17
2024-05-09T03:03:14.496Z,47.63
2024-05-09T03:05:44.499Z,42.15
2024-05-09T03:08:12.501Z,45.63
2024-05-09T03:13:15.277Z,50.75
2024-05-09T03:15:44.604Z,45.53
2024-05-09T03:18:12.860Z,49.28
2024-05-09T03:20:40.810Z,49.13
2024-05-09T03:23:09.616Z,48.05
2024-05-09T03:25:38.916Z,45.13
2024-05-09T03:28:06.783Z,50.53
2024-05-09T03:30:40.886Z,48.83
2024-05-09T03:33:12.221Z,50.17
2024-05-09T03:35:40.790Z,50.42
2024-05-09T03:38:08.611Z,49.28
2024-05-09T03:40:36.292Z,47.28
2024-05-09T03:43:03.825Z,50.80
2024-05-09T03:45:31.311Z,49.53
2024-05-09T03:47:59.175Z,51.88
2024-05-09T03:50:33.654Z,54.53
2024-05-09T03:53:03.470Z,52.15
2024-05-09T03:55:31.333Z,49.08
2024-05-09T03:57:59.277Z,57.88
2024-05-09T04:00:35.156Z,52.58
2024-05-09T04:03:09.030Z,51.60
2024-05-09T04:05:44.206Z,50.60
2024-05-09T04:08:14.578Z,55.33
2024-05-09T04:10:42.305Z,53.40
2024-05-09T04:13:10.492Z,55.47
2024-05-09T04:15:38.355Z,62.35
2024-05-09T04:18:05.965Z,53.25
2024-05-09T04:20:38.754Z,53.08
2024-05-09T04:23:13.744Z,51.63
2024-05-09T04:25:43.423Z,51.95
2024-05-09T04:28:10.966Z,53.73
2024-05-09T04:30:40.910Z,56.58
2024-05-09T04:33:12.143Z,58.20
2024-05-09T04:35:42.679Z,56.70
2024-05-09T04:38:11.185Z,63.50
2024-05-09T04:40:38.792Z,60.53
2024-05-09T04:43:07.080Z,57.00
2024-05-09T04:45:35.635Z,57.35
2024-05-09T04:48:03.814Z,63.47
2024-05-09T04:50:36.915Z,55.03
2024-05-09T04:53:08.663Z,56.40
2024-05-09T04:55:37.644Z,60.95
2024-05-09T04:58:08.365Z,57.50
2024-05-09T05:00:38.008Z,58.75
2024-05-09T05:03:09.337Z,55.30
2024-05-09T05:05:40.491Z,56.05
2024-05-09T05:08:15.411Z,60.70
2024-05-09T05:10:43.929Z,68.00
2024-05-09T05:13:22.668Z,66.07
2024-05-09T05:15:55.617Z,61.58
2024-05-09T05:18:24.500Z,67.53
2024-05-09T05:20:52.600Z,59.70
2024-05-09T05:23:21.763Z,63.42
2024-05-09T05:25:50.258Z,60.38
2024-05-09T05:28:18.181Z,63.25
2024-05-09T05:30:45.981Z,62.60
2024-05-09T05:33:14.486Z,61.70
2024-05-09T05:35:42.293Z,61.25
2024-05-09T05:38:10.594Z,62.55
2024-05-09T05:40:39.647Z,59.10
2024-05-09T05:43:10.150Z,61.17
2024-05-09T05:45:39.047Z,58.88
2024-05-09T05:48:07.760Z,55.72
2024-05-09T05:50:37.855Z,61.70
2024-05-09T05:53:07.984Z,59.13
2024-05-09T05:58:04.111Z,63.40
2024-05-09T06:00:38.276Z,61.50
2024-05-09T06:03:08.870Z,61.90
2024-05-09T06:05:38.690Z,69.10
2024-05-09T06:08:06.785Z,63.42
2024-05-09T06:10:38.664Z,60.88
2024-05-09T06:13:11.483Z,63.95
2024-05-09T06:15:43.050Z,62.65
2024-05-09T06:18:12.327Z,60.10
2024-05-09T06:20:42.652Z,56.35
2024-05-09T06:23:11.807Z,58.30
2024-05-09T06:25:39.846Z,60.47
2024-05-09T06:28:07.347Z,61.22
2024-05-09T06:30:42.274Z,65.43
2024-05-09T06:33:13.571Z,59.22
2024-05-09T06:35:44.001Z,62.30
2024-05-09T06:38:12.308Z,57.88
2024-05-09T06:40:42.399Z,58.47
2024-05-09T06:43:12.602Z,68.47
2024-05-09T06:45:40.294Z,58.75
2024-05-09T06:48:09.259Z,59.28
2024-05-09T06:50:38.425Z,61.77
2024-05-09T06:53:08.177Z,61.17
2024-05-09T06:55:36.993Z,62.45
2024-05-09T06:58:06.647Z,55.00
2024-05-09T07:00:38.757Z,57.88
2024-05-09T07:03:17.903Z,58.47
2024-05-09T07:05:48.181Z,54.25
2024-05-09T07:10:44.974Z,59.20
2024-05-09T07:13:13.673Z,57.50
2024-05-09T07:15:41.768Z,59.63
2024-05-09T07:18:15.535Z,58.22
2024-05-09T07:20:43.754Z,57.10
2024-05-09T07:23:12.272Z,61.45
2024-05-09T07:25:40.744Z,59.67
2024-05-09T07:28:13.585Z,61.95
2024-05-09T07:30:41.820Z,61.67
2024-05-09T07:33:09.759Z,62.13
2024-05-09T07:35:37.609Z,66.78
2024-05-09T07:38:05.105Z,65.80
2024-05-09T07:40:36.214Z,64.45
2024-05-09T07:43:05.090Z,65.43
2024-05-09T07:52:23.677Z,69.22
2024-05-09T07:53:39.549Z,62.80
2024-05-09T07:56:11.904Z,62.75
2024-05-09T07:58:39.787Z,64.43
2024-05-09T08:01:07.345Z,67.57
2024-05-09T08:03:35.177Z,64.43
2024-05-09T08:06:02.830Z,59.00
2024-05-09T08:08:30.258Z,65.15
2024-05-09T08:10:57.895Z,60.63
2024-05-09T08:13:25.433Z,60.20
2024-05-09T08:15:52.992Z,61.50
2024-05-09T08:18:20.699Z,57.22
2024-05-09T08:20:49.895Z,61.58
2024-05-09T08:23:18.018Z,62.77
2024-05-09T08:25:45.584Z,63.78
2024-05-09T08:28:13.247Z,60.83
2024-05-09T08:30:41.391Z,62.60
2024-05-09T08:33:09.231Z,59.90
2024-05-09T08:35:38.091Z,55.45
2024-05-09T08:38:07.147Z,54.40
2024-05-09T08:40:37.463Z,53.70
2024-05-09T08:43:10.988Z,53.58
2024-05-09T08:45:43.758Z,56.85
2024-05-09T08:48:14.913Z,54.38
2024-05-09T08:50:45.024Z,55.30
2024-05-09T08:53:14.871Z,55.97
2024-05-09T08:55:43.954Z,55.60
2024-05-09T08:58:19.339Z,56.38
2024-05-09T09:00:47.609Z,54.83
2024-05-09T09:03:22.039Z,59.17
2024-05-09T09:06:15.878Z,54.08
2024-05-09T09:08:44.977Z,52.22
2024-05-09T09:11:12.624Z,49.65
2024-05-09T09:13:40.236Z,51.40
2024-05-09T09:16:07.875Z,47.88
2024-05-09T09:18:35.496Z,49.00
2024-05-09T09:21:03.730Z,46.70
2024-05-09T09:23:31.379Z,49.58
2024-05-09T09:26:00.298Z,52.65
2024-05-09T09:28:28.281Z,50.45
2024-05-09T09:31:03.388Z,51.67
2024-05-09T09:33:36.041Z,48.58
2024-05-09T09:36:05.726Z,48.92
2024-05-09T09:38:36.768Z,50.30
2024-05-09T09:41:07.784Z,52.08
2024-05-09T09:43:36.442Z,48.17
2024-05-09T09:46:04.219Z,53.80
2024-05-09T09:48:32.398Z,54.53
2024-05-09T09:51:00.459Z,52.40
2024-05-09T09:53:32.058Z,47.72
2024-05-09T09:56:00.958Z,44.05
2024-05-09T09:58:29.576Z,51.88
2024-05-09T10:00:57.663Z,49.20
2024-05-09T10:03:28.149Z,56.22
2024-05-09T10:05:56.153Z,52.83
2024-05-09T10:08:24.001Z,57.42
2024-05-09T10:10:52.271Z,49.95
2024-05-09T10:13:20.271Z,52.35
2024-05-09T10:15:53.501Z,49.15
2024-05-09T10:18:28.075Z,56.00
2024-05-09T10:21:01.396Z,49.95
2024-05-09T10:23:34.747Z,50.13
2024-05-09T10:26:06.657Z,47.40
2024-05-09T10:28:37.105Z,46.05
2024-05-09T10:31:09.628Z,49.58
2024-05-09T10:33:52.586Z,53.20
2024-05-09T10:36:25.206Z,48.42
2024-05-09T10:38:53.901Z,48.00
2024-05-09T10:41:22.710Z,49.72
2024-05-09T10:43:50.722Z,50.83
2024-05-09T10:46:21.415Z,50.38
2024-05-09T10:48:50.818Z,48.38
2024-05-09T10:51:21.948Z,50.72
2024-05-09T10:53:49.481Z,51.50
2024-05-09T10:56:17.318Z,53.58
2024-05-09T10:58:48.298Z,52.03
2024-05-09T11:01:22.028Z,53.00
2024-05-09T11:03:50.416Z,52.95
2024-05-09T11:06:18.563Z,52.47
2024-05-09T11:08:46.681Z,54.47
2024-05-09T11:11:14.193Z,52.35
2024-05-09T11:13:41.713Z,55.55
2024-05-09T11:16:20.477Z,51.55
2024-05-09T11:18:56.583Z,58.37
2024-05-09T11:21:24.844Z,52.38
2024-05-09T11:23:52.559Z,49.88
2024-05-09T11:26:21.596Z,51.97
2024-05-09T11:28:50.646Z,53.33
2024-05-09T11:31:18.587Z,51.83
2024-05-09T11:33:46.738Z,52.67
2024-05-09T11:36:15.181Z,53.90
2024-05-09T11:38:42.843Z,47.70
2024-05-09T11:41:17.084Z,64.65
2024-05-09T11:43:44.601Z,67.20
2024-05-09T11:46:12.445Z,51.80
2024-05-09T11:48:40.348Z,54.42
2024-05-09T11:51:10.250Z,50.33
2024-05-09T11:53:37.863Z,67.30
2024-05-09T11:56:08.509Z,47.40
2024-05-09T11:58:39.692Z,46.55
2024-05-09T12:01:10.483Z,50.53
2024-05-09T12:03:38.559Z,50.58
2024-05-09T12:06:06.218Z,41.60
2024-05-09T12:08:34.171Z,44.50
2024-05-09T12:11:02.761Z,44.85
2024-05-09T12:13:30.729Z,45.72
2024-05-09T12:15:58.686Z,45.42
2024-05-09T12:20:56.191Z,41.80
2024-05-09T12:23:23.953Z,43.97
2024-05-09T12:25:51.548Z,40.60
2024-05-09T12:28:19.820Z,39.97
2024-05-09T12:30:48.675Z,38.20
2024-05-09T12:33:20.260Z,39.30
2024-05-09T12:35:50.710Z,38.70
2024-05-09T12:38:18.897Z,34.88
2024-05-09T12:40:46.442Z,38.95
2024-05-09T12:43:14.230Z,38.83
2024-05-09T12:45:41.651Z,35.63
2024-05-09T12:48:13.053Z,33.35
2024-05-09T12:50:42.027Z,32.30
2024-05-09T12:53:09.723Z,33.75
2024-05-09T12:55:44.890Z,36.08
2024-05-09T12:58:24.817Z,31.58
2024-05-09T13:00:52.732Z,39.03
2024-05-09T13:03:20.691Z,27.85
2024-05-09T13:05:49.895Z,27.88
2024-05-09T13:08:17.861Z,26.33
2024-05-09T13:10:45.494Z,25.48
2024-05-09T13:13:13.652Z,28.40
2024-05-09T13:15:41.258Z,28.38
2024-05-09T13:18:12.445Z,23.48
2024-05-09T13:20:40.053Z,24.02
2024-05-09T13:23:08.667Z,21.75
2024-05-09T13:25:38.009Z,21.75
2024-05-09T13:28:06.679Z,21.80
2024-05-09T13:30:39.930Z,23.13
2024-05-09T13:33:13.981Z,23.88
2024-05-09T13:35:46.934Z,23.58
2024-05-09T13:38:18.965Z,15.75
2024-05-09T13:40:47.624Z,15.65
2024-05-09T13:43:15.833Z,14.75
2024-05-09T13:45:43.653Z,17.58
2024-05-09T13:48:11.431Z,16.67
2024-05-09T13:50:39.386Z,16.95
2024-05-09T13:53:08.493Z,17.50
2024-05-09T13:55:40.484Z,16.85
2024-05-09T13:58:09.413Z,15.20
2024-05-09T14:00:46.377Z,17.65
2024-05-09T14:03:18.698Z,17.80
2024-05-09T14:05:51.583Z,13.80
2024-05-09T14:08:23.060Z,15.97
2024-05-09T14:10:51.006Z,15.05
2024-05-09T14:13:18.766Z,13.02
2024-05-09T14:15:46.992Z,13.93
2024-05-09T14:18:15.169Z,20.98
2024-05-09T14:20:43.128Z,13.60
2024-05-09T14:23:11.047Z,15.73
2024-05-09T14:25:42.565Z,12.63
2024-05-09T14:28:12.701Z,13.70
2024-05-09T14:30:42.395Z,10.30
2024-05-09T14:33:11.418Z,11.90
2024-05-09T14:35:39.523Z,11.90
2024-05-09T14:38:08.175Z,13.57
2024-05-09T14:40:41.680Z,12.77
2024-05-09T14:43:12.701Z,10.18
2024-05-09T14:45:41.269Z,13.43
2024-05-09T14:48:09.144Z,13.02
2024-05-09T14:50:39.305Z,11.40
2024-05-09T14:53:13.610Z,11.55
2024-05-09T14:55:43.003Z,10.82
2024-05-09T14:58:15.246Z,10.90
2024-05-09T15:00:49.733Z,9.77
2024-05-09T15:03:24.418Z,10.45
2024-05-09T15:05:52.561Z,9.20
2024-05-09T15:08:20.491Z,11.80
2024-05-09T15:10:50.278Z,8.60
2024-05-09T15:13:19.565Z,11.23
2024-05-09T15:15:47.640Z,11.95
2024-05-09T15:18:15.737Z,12.52
2024-05-09T15:20:44.801Z,11.68
2024-05-09T15:23:12.705Z,10.35
2024-05-09T15:25:40.717Z,11.90
2024-05-09T15:28:08.930Z,11.50
2024-05-09T15:30:36.971Z,10.45
2024-05-09T15:33:06.207Z,13.32
2024-05-09T15:35:35.450Z,18.73
2024-05-09T15:38:03.668Z,13.77
2024-05-09T15:40:38.710Z,12.45
2024-05-09T15:43:10.784Z,15.52
2024-05-09T15:45:40.948Z,10.93
2024-05-09T15:48:10.244Z,12.52
2024-05-09T15:50:41.109Z,9.95
2024-05-09T15:53:11.836Z,11.65
2024-05-09T15:55:41.027Z,12.23
2024-05-09T15:58:08.903Z,12.10
2024-05-09T16:00:41.510Z,9.25
2024-05-09T16:03:12.784Z,9.15
2024-05-09T16:05:43.447Z,11.32
2024-05-09T16:08:12.273Z,9.27
2024-05-09T16:10:44.196Z,10.73
2024-05-09T16:13:13.001Z,12.13
2024-05-09T16:15:43.971Z,11.68
2024-05-09T16:18:11.960Z,9.60
2024-05-09T16:20:44.729Z,8.60
2024-05-09T16:23:13.939Z,14.10
2024-05-09T16:25:48.384Z,12.25
2024-05-09T16:28:16.743Z,10.63
2024-05-09T16:30:44.625Z,11.65
2024-05-09T16:33:12.451Z,12.25
2024-05-09T16:35:40.471Z,10.57
2024-05-09T16:38:08.023Z,10.40
2024-05-09T16:40:40.703Z,11.48
2024-05-09T16:43:15.301Z,11.73
2024-05-09T16:45:44.690Z,11.55
2024-05-09T16:48:14.043Z,12.00
2024-05-09T16:50:41.934Z,12.30
2024-05-09T16:53:09.696Z,12.73
2024-05-09T16:55:37.586Z,9.98
2024-05-09T16:58:06.957Z,13.35
2024-05-09T17:00:40.896Z,9.43
2024-05-09T17:03:13.744Z,10.73
2024-05-09T17:05:43.374Z,12.32
2024-05-09T17:08:11.453Z,13.15
2024-05-09T17:10:39.086Z,12.18
2024-05-09T17:13:07.949Z,13.45
2024-05-09T17:15:37.484Z,13.13
2024-05-09T17:18:06.852Z,11.10
2024-05-09T17:20:36.903Z,12.63
2024-05-09T17:23:13.452Z,10.80
2024-05-09T17:25:42.470Z,12.60
2024-05-09T17:28:10.917Z,13.43
2024-05-09T17:30:42.577Z,10.98
2024-05-09T17:33:11.977Z,13.38
2024-05-09T17:35:40.715Z,10.00
2024-05-09T17:38:09.428Z,9.18
2024-05-09T17:40:38.665Z,10.23
2024-05-09T17:43:10.739Z,11.27
2024-05-09T17:45:41.203Z,12.52
2024-05-09T17:48:11.930Z,10.75
2024-05-09T17:50:41.437Z,12.13
2024-05-09T17:53:11.642Z,12.40
2024-05-09T17:55:40.467Z,10.57
2024-05-09T17:58:08.936Z,14.68
2024-05-09T18:00:40.115Z,12.07
2024-05-09T18:03:14.383Z,11.13
2024-05-09T18:05:44.388Z,16.48
2024-05-09T18:08:13.573Z,12.45
2024-05-09T18:10:41.897Z,15.98
2024-05-09T18:13:10.943Z,15.15
2024-05-09T18:15:39.511Z,17.00
2024-05-09T18:18:08.010Z,17.63
2024-05-09T18:20:42.440Z,20.27
2024-05-09T18:23:17.766Z,11.32
2024-05-09T18:25:47.656Z,16.48
2024-05-09T18:28:16.851Z,14.75
2024-05-09T18:30:45.174Z,12.10
2024-05-09T18:33:13.426Z,10.60
2024-05-09T18:35:43.930Z,15.77
2024-05-09T18:40:41.049Z,12.15
2024-05-09T18:43:10.674Z,10.80
2024-05-09T18:45:38.987Z,12.10
2024-05-09T18:48:08.609Z,15.45
2024-05-09T18:50:39.951Z,12.23
2024-05-09T18:53:10.983Z,10.82
2024-05-09T18:55:39.515Z,10.75
2024-05-09T18:58:07.296Z,11.57
2024-05-09T19:00:40.369Z,13.82
2024-05-09T19:03:12.866Z,14.10
2024-05-09T19:05:43.953Z,14.65
2024-05-09T19:08:12.975Z,13.68
2024-05-09T19:10:40.789Z,39.63
2024-05-09T19:13:11.968Z,19.30
2024-05-09T19:15:42.370Z,21.90
2024-05-09T19:18:12.716Z,28.13
2024-05-09T19:20:40.739Z,11.00
2024-05-09T19:23:08.348Z,15.98
2024-05-09T19:25:36.525Z,20.02
2024-05-09T19:28:05.419Z,13.63
2024-05-09T19:30:40.763Z,22.35
2024-05-09T19:33:13.865Z,12.70
2024-05-09T19:35:42.960Z,18.85
2024-05-09T19:38:13.669Z,16.80
2024-05-09T19:40:41.334Z,17.58
2024-05-09T19:43:09.099Z,20.20
2024-05-09T19:45:37.110Z,17.73
2024-05-09T19:48:06.336Z,16.92
2024-05-09T19:50:41.447Z,16.05
2024-05-09T19:53:14.976Z,12.63
2024-05-09T19:55:42.730Z,15.07
2024-05-09T19:58:11.267Z,15.80
2024-05-09T20:00:41.791Z,15.15
2024-05-09T20:03:15.361Z,17.50
2024-05-09T20:05:45.537Z,13.57
2024-05-09T20:10:42.636Z,16.27
2024-05-09T20:13:11.023Z,14.37
2024-05-09T20:15:40.016Z,17.63
2024-05-09T20:18:10.947Z,14.82
2024-05-09T20:20:41.964Z,18.23
2024-05-09T20:23:12.447Z,15.60
2024-05-09T20:25:40.666Z,16.70
2024-05-09T20:28:11.518Z,17.48
2024-05-09T20:30:39.459Z,15.27
2024-05-09T20:33:09.098Z,16.50
2024-05-09T20:35:37.738Z,16.83
2024-05-09T20:38:06.069Z,14.65
2024-05-09T20:40:37.613Z,16.15
2024-05-09T20:43:10.369Z,18.35
2024-05-09T20:45:38.907Z,17.58
2024-05-09T20:48:08.443Z,19.30
2024-05-09T20:50:40.189Z,18.05
2024-05-09T20:53:12.362Z,16.75
2024-05-09T20:55:40.870Z,15.02
2024-05-09T20:58:09.272Z,15.02
2024-05-09T21:00:40.784Z,15.55
2024-05-09T21:03:12.957Z,19.75
2024-05-09T21:05:41.411Z,22.67
2024-05-09T21:08:09.693Z,16.25
2024-05-09T21:10:37.695Z,21.27
2024-05-09T21:13:07.002Z,18.30
2024-05-09T21:15:35.773Z,20.67
2024-05-09T21:18:04.548Z,18.52
2024-05-09T21:20:34.390Z,16.88
2024-05-09T21:23:02.769Z,16.02
2024-05-09T21:25:31.026Z,18.10
2024-05-09T21:27:58.850Z,18.23
2024-05-09T21:30:32.744Z,21.60
2024-05-09T21:33:09.928Z,17.95
2024-05-09T21:35:39.035Z,21.23
2024-05-09T21:38:07.923Z,15.93
2024-05-09T21:40:36.925Z,20.20
2024-05-09T21:43:09.016Z,18.85
2024-05-09T21:45:37.259Z,20.60
2024-05-09T21:48:06.197Z,17.90
2024-05-09T21:50:39.840Z,14.57
2024-05-09T21:53:11.003Z,18.27
2024-05-09T21:55:38.666Z,18.67
2024-05-09T21:58:06.267Z,19.70
2024-05-09T22:00:38.365Z,18.65
2024-05-09T22:03:08.226Z,19.35
2024-05-09T22:05:37.544Z,15.75
2024-05-09T22:08:05.716Z,18.92
2024-05-09T22:10:35.616Z,15.55
2024-05-09T22:13:05.789Z,17.10
2024-05-09T22:15:39.445Z,17.45
2024-05-09T22:18:09.293Z,16.83
2024-05-09T22:20:44.818Z,23.02
2024-05-09T22:23:14.821Z,17.33
2024-05-09T22:25:42.606Z,16.80
2024-05-09T22:28:12.874Z,17.33
2024-05-09T22:30:41.254Z,15.88
2024-05-09T22:33:10.678Z,19.00
2024-05-09T22:35:40.937Z,17.92
2024-05-09T22:38:08.936Z,21.25
2024-05-09T22:40:46.964Z,16.30
2024-05-09T22:43:23.210Z,16.77
2024-05-09T22:45:55.882Z,16.15
2024-05-09T22:48:25.010Z,16.60
2024-05-09T22:50:53.494Z,19.00
2024-05-09T22:53:25.262Z,15.93
2024-05-09T22:55:53.580Z,21.63
2024-05-09T22:58:21.480Z,23.85
2024-05-09T23:00:49.185Z,17.77
2024-05-09T23:03:18.649Z,19.35
2024-05-09T23:05:46.467Z,17.70
2024-05-09T23:08:13.942Z,20.73
2024-05-09T23:10:41.944Z,19.52
2024-05-09T23:13:09.772Z,18.83
2024-05-09T23:15:38.729Z,19.20
2024-05-09T23:18:07.003Z,20.33
2024-05-09T23:20:38.552Z,21.42
2024-05-09T23:23:08.346Z,21.45
2024-05-09T23:25:36.770Z,18.80
2024-05-09T23:28:05.039Z,24.65
2024-05-09T23:30:37.742Z,20.73
2024-05-09T23:33:12.238Z,21.40
2024-05-09T23:35:44.464Z,21.20
2024-05-09T23:38:16.180Z,26.50
2024-05-09T23:40:43.916Z,23.50
2024-05-09T23:43:12.466Z,20.25
2024-05-09T23:45:41.669Z,27.77
2024-05-09T23:48:10.015Z,21.75
2024-05-09T23:50:39.421Z,23.08
2024-05-09T23:53:09.541Z,23.98
2024-05-09T23:55:38.211Z,25.20
2024-05-09T23:58:06.474Z,21.35
